Vasiliy Bozhenko — URHP — position and weather

sailwx.info

Track history (hours):
 
Tides and Currents Weather Stations Pressure Air Temp Water Temp Dewpoint Dewpoint Depression Visibility Wind Speed Wind Dir Waves Ship Positions

Vasiliy Bozhenko

Last reported at 2015-Apr-21 03:22 UTC. Time now 2015-Apr-21 09:54 UTC.
Position N 46°33' E 032°18'.

Length 114 m; draft 2.8 m.

Type: Cargo ship. MMSI: 272085000.

Date/timePositionNaut miles runAvg speedWind from/ knotsBaromVisibWave heightAir tempDewpointWater temp
2015-Apr-21 03:22N 46°33' E 032°18'5 6.1
2015-Apr-21 02:33N 46°32' E 032°11'3 3.1
2015-Apr-21 01:27N 46°32' E 032°06'0 0.0
2015-Apr-21 00:26N 46°32' E 032°06'0 0.0
2015-Apr-20 23:33N 46°32' E 032°06'0 0.0
2015-Apr-20 22:30N 46°32' E 032°06'0 0.0
2015-Apr-20 21:30N 46°32' E 032°06'1 1.5
2015-Apr-20 20:33N 46°32' E 032°04'8 7.5
2015-Apr-20 19:33N 46°34' E 031°53'7 6.8
2015-Apr-20 18:31N 46°35' E 031°43'  
2015-Apr-15 09:25N 41°00' E 028°60'  
2015-Apr-12 15:30N 46°36' E 031°39'7 7.2
2015-Apr-12 14:33N 46°35' E 031°49'7 7.4
2015-Apr-12 13:33N 46°33' E 031°60'147 4.7
2015-Apr-11 06:33N 47°43' E 035°09'5 5.4
2015-Apr-11 05:33N 47°48' E 035°09'4 3.9
2015-Apr-11 04:33N 47°51' E 035°05'1 0.8
2015-Apr-11 03:23N 47°52' E 035°06'  
Track history (hours):
 
Tides and Currents Weather Stations Pressure Air Temp Water Temp Dewpoint Dewpoint Depression Visibility Wind Speed Wind Dir Waves Ship Positions

Vasiliy Bozhenko

Last reported at 2015-Apr-21 03:22 UTC. Time now 2015-Apr-21 09:54 UTC.
Position N 46°33' E 032°18'.

Length 114 m; draft 2.8 m.

Type: Cargo ship. MMSI: 272085000.

Date/timePositionNaut miles runAvg speedWind from/ knotsBaromVisibWave heightAir tempDewpointWater temp
2015-Apr-21 03:22N 46°33' E 032°18'5 6.1
2015-Apr-21 02:33N 46°32' E 032°11'3 3.1
2015-Apr-21 01:27N 46°32' E 032°06'0 0.0
2015-Apr-21 00:26N 46°32' E 032°06'0 0.0
2015-Apr-20 23:33N 46°32' E 032°06'0 0.0
2015-Apr-20 22:30N 46°32' E 032°06'0 0.0
2015-Apr-20 21:30N 46°32' E 032°06'1 1.5
2015-Apr-20 20:33N 46°32' E 032°04'8 7.5
2015-Apr-20 19:33N 46°34' E 031°53'7 6.8
2015-Apr-20 18:31N 46°35' E 031°43'  
2015-Apr-15 09:25N 41°00' E 028°60'  
2015-Apr-12 15:30N 46°36' E 031°39'7 7.2
2015-Apr-12 14:33N 46°35' E 031°49'7 7.4
2015-Apr-12 13:33N 46°33' E 031°60'147 4.7
2015-Apr-11 06:33N 47°43' E 035°09'5 5.4
2015-Apr-11 05:33N 47°48' E 035°09'4 3.9
2015-Apr-11 04:33N 47°51' E 035°05'1 0.8
2015-Apr-11 03:23N 47°52' E 035°06'  

Dump ship's entire track history